Time;durP1;ratioP1;P1;durP2;ratioP2;P2;SDS_P1;SDS_P2;PMS_P1;PMS_P2;Temp;Humidity;BMP_temperature;BMP_pressure;BME280_temperature;BME280_humidity;BME280_pressure;Samples;Min_cycle;Max_cycle;Signal;HPM_P1;HPM_P2
2024/01/24 00:02:08;;;;;;;1.83;0.50;;;17.30;99.90;;;;;;5053418;28;20033;-76
2024/01/24 00:04:34;;;;;;;3.57;0.83;;;17.30;99.90;;;;;;5053857;28;20094;-74
2024/01/24 00:06:59;;;;;;;1.57;0.63;;;17.40;99.90;;;;;;5052339;28;20036;-74
2024/01/24 00:09:25;;;;;;;2.00;0.60;;;17.30;99.90;;;;;;5044213;28;20435;-74
2024/01/24 00:11:51;;;;;;;2.50;0.80;;;17.30;99.90;;;;;;5042576;28;20100;-74
2024/01/24 00:14:17;;;;;;;2.30;0.93;;;17.30;99.90;;;;;;5038381;28;20041;-76
2024/01/24 00:16:42;;;;;;;2.43;0.60;;;17.30;99.90;;;;;;5042656;28;20360;-79
2024/01/24 00:19:08;;;;;;;1.37;0.67;;;17.30;99.90;;;;;;5037891;28;20033;-78
2024/01/24 00:21:35;;;;;;;2.13;0.50;;;17.30;99.90;;;;;;5040524;28;20097;-78
2024/01/24 00:24:01;;;;;;;0.73;0.50;;;17.30;99.90;;;;;;5048474;28;20749;-75
2024/01/24 00:26:27;;;;;;;2.00;0.60;;;17.30;99.90;;;;;;5049650;28;20065;-75
2024/01/24 00:28:53;;;;;;;2.67;0.75;;;17.30;99.90;;;;;;5049486;28;20021;-75
2024/01/24 00:31:18;;;;;;;1.80;0.80;;;17.30;99.90;;;;;;5043615;28;20661;-75
2024/01/24 00:33:44;;;;;;;2.53;0.67;;;17.30;99.90;;;;;;5049200;28;20474;-77
2024/01/24 00:36:10;;;;;;;3.97;0.70;;;17.30;99.90;;;;;;5047906;28;20034;-76
2024/01/24 00:38:36;;;;;;;3.70;0.97;;;17.30;99.90;;;;;;5044320;28;20175;-76
2024/01/24 00:41:01;;;;;;;1.77;0.57;;;17.30;99.90;;;;;;5045482;28;20034;-74
2024/01/24 00:43:27;;;;;;;3.70;0.63;;;17.30;99.90;;;;;;5047690;28;20136;-73
2024/01/24 00:45:53;;;;;;;4.57;0.60;;;17.30;99.90;;;;;;5046308;28;20021;-75
2024/01/24 00:48:19;;;;;;;2.03;0.73;;;17.30;99.90;;;;;;5047714;28;20033;-77
2024/01/24 00:50:44;;;;;;;1.63;0.53;;;17.30;99.90;;;;;;5036677;28;20033;-74
2024/01/24 00:53:15;;;;;;;0.67;0.50;;;17.30;99.90;;;;;;5046080;28;20174;-76
2024/01/24 00:55:41;;;;;;;2.40;0.52;;;17.30;99.90;;;;;;5054801;28;20052;-80
2024/01/24 00:58:07;;;;;;;1.47;0.40;;;17.30;99.90;;;;;;5039034;28;20079;-74
2024/01/24 01:00:33;;;;;;;1.23;0.47;;;17.20;99.90;;;;;;5051235;28;20510;-78
2024/01/24 01:02:58;;;;;;;1.97;0.40;;;17.20;99.90;;;;;;5057876;28;20734;-75
2024/01/24 01:05:24;;;;;;;2.03;0.50;;;17.20;99.90;;;;;;5056306;28;20159;-75
2024/01/24 01:07:50;;;;;;;1.47;0.60;;;17.20;99.90;;;;;;5058645;28;20033;-79
2024/01/24 01:10:16;;;;;;;0.30;0.30;;;17.20;99.90;;;;;;5056706;28;20384;-78
2024/01/24 01:12:42;;;;;;;1.20;0.50;;;17.20;99.90;;;;;;5057766;28;20032;-78
2024/01/24 01:15:08;;;;;;;1.10;0.60;;;17.20;99.90;;;;;;5050632;28;20021;-74
2024/01/24 01:17:34;;;;;;;1.92;0.70;;;17.20;99.90;;;;;;5044685;28;20051;-74
2024/01/24 01:20:00;;;;;;;2.33;0.53;;;17.20;99.90;;;;;;5050628;28;20383;-77
2024/01/24 01:22:25;;;;;;;1.70;0.70;;;17.20;99.90;;;;;;5052091;28;20489;-75
2024/01/24 01:24:51;;;;;;;4.50;0.50;;;17.20;99.90;;;;;;5052276;28;20572;-75
2024/01/24 01:27:16;;;;;;;1.80;0.30;;;17.20;99.90;;;;;;5050534;28;20044;-76
2024/01/24 01:29:42;;;;;;;2.33;0.50;;;17.20;99.90;;;;;;5050478;28;20025;-76
2024/01/24 01:32:08;;;;;;;2.07;0.40;;;17.10;99.90;;;;;;5054805;28;20052;-75
2024/01/24 01:34:34;;;;;;;1.50;0.50;;;17.10;99.90;;;;;;5050024;28;20033;-75
2024/01/24 01:36:59;;;;;;;1.53;0.53;;;17.10;99.90;;;;;;5049849;28;20409;-74
2024/01/24 01:39:25;;;;;;;3.33;0.70;;;17.10;99.90;;;;;;5052289;28;20031;-74
2024/01/24 01:41:51;;;;;;;5.20;0.80;;;17.10;99.90;;;;;;5051605;28;20028;-76
2024/01/24 01:44:17;;;;;;;1.47;0.60;;;17.10;99.90;;;;;;5051658;28;20040;-74
2024/01/24 01:46:46;;;;;;;4.07;0.47;;;17.10;99.90;;;;;;5051812;28;20044;-75
2024/01/24 01:49:12;;;;;;;1.23;0.43;;;17.10;99.90;;;;;;5051483;28;20032;-75
2024/01/24 01:51:38;;;;;;;1.98;0.70;;;17.10;99.90;;;;;;5050269;28;20029;-75
2024/01/24 01:54:06;;;;;;;1.48;0.38;;;17.10;99.90;;;;;;5050388;28;20094;-75
2024/01/24 01:56:32;;;;;;;0.93;0.30;;;17.10;99.90;;;;;;5051131;28;20039;-76
2024/01/24 01:58:58;;;;;;;2.10;0.57;;;17.10;99.90;;;;;;5044800;28;20462;-74
2024/01/24 02:01:24;;;;;;;2.73;0.40;;;17.10;99.90;;;;;;5051947;28;20033;-76
2024/01/24 02:03:50;;;;;;;2.93;0.90;;;17.10;99.90;;;;;;5050014;28;20040;-74
2024/01/24 02:06:16;;;;;;;1.38;0.38;;;17.10;99.90;;;;;;5050109;28;20029;-73
2024/01/24 02:08:43;;;;;;;1.03;0.33;;;17.00;99.90;;;;;;5051388;28;20036;-74
2024/01/24 02:11:09;;;;;;;2.75;0.55;;;17.00;99.90;;;;;;5050183;28;20063;-75
2024/01/24 02:13:35;;;;;;;4.28;0.65;;;17.00;99.90;;;;;;5050955;28;20033;-76
2024/01/24 02:16:03;;;;;;;2.40;0.47;;;17.10;99.90;;;;;;5049997;28;20024;-73
2024/01/24 02:18:29;;;;;;;1.73;0.55;;;17.00;99.90;;;;;;5051017;28;20044;-75
2024/01/24 02:20:55;;;;;;;2.45;0.45;;;17.00;99.90;;;;;;5051052;28;20025;-77
2024/01/24 02:23:25;;;;;;;0.90;0.45;;;17.00;99.90;;;;;;5045014;28;20463;-74
2024/01/24 02:25:52;;;;;;;1.67;0.65;;;17.00;99.90;;;;;;5045513;28;20378;-75
2024/01/24 02:28:18;;;;;;;0.88;0.47;;;17.00;99.90;;;;;;5049788;28;20037;-74
2024/01/24 02:30:44;;;;;;;2.10;0.47;;;17.00;99.90;;;;;;5051273;28;20044;-79
2024/01/24 02:33:10;;;;;;;2.45;0.50;;;17.00;99.90;;;;;;5051328;28;20359;-78
2024/01/24 02:35:36;;;;;;;1.90;0.73;;;17.00;99.90;;;;;;5049288;28;20036;-75
2024/01/24 02:38:02;;;;;;;2.13;0.80;;;17.00;99.90;;;;;;5048736;28;20049;-75
2024/01/24 02:40:28;;;;;;;1.87;0.57;;;17.00;99.90;;;;;;5050568;28;20092;-77
2024/01/24 02:42:54;;;;;;;0.83;0.50;;;16.90;99.90;;;;;;5046720;28;20056;-77
2024/01/24 02:45:19;;;;;;;3.05;0.77;;;17.00;99.90;;;;;;5049620;28;20087;-75
2024/01/24 02:47:45;;;;;;;6.20;0.87;;;17.00;99.90;;;;;;5049621;28;20033;-76
2024/01/24 02:50:12;;;;;;;1.80;0.50;;;17.00;99.90;;;;;;5051477;28;20032;-77
2024/01/24 02:52:38;;;;;;;1.83;0.60;;;16.90;99.90;;;;;;5050385;28;20033;-75
2024/01/24 02:55:04;;;;;;;;;;;16.90;99.90;;;;;;5051248;28;20041;-76
2024/01/24 02:57:30;;;;;;;1.75;0.45;;;16.90;99.90;;;;;;5049432;28;19917;-74
2024/01/24 02:59:56;;;;;;;4.53;0.70;;;16.90;99.90;;;;;;5048819;28;20060;-75
2024/01/24 03:02:21;;;;;;;2.70;0.70;;;16.90;99.90;;;;;;5049791;28;20044;-74
2024/01/24 03:04:47;;;;;;;2.17;0.67;;;16.90;99.90;;;;;;5050142;28;20087;-75
2024/01/24 03:07:13;;;;;;;3.43;0.90;;;16.90;99.90;;;;;;5049239;28;20566;-75
2024/01/24 03:09:39;;;;;;;2.17;0.60;;;16.90;99.90;;;;;;5050173;28;20119;-75
2024/01/24 03:12:04;;;;;;;4.60;0.80;;;16.90;99.90;;;;;;5050008;28;20754;-77
2024/01/24 03:14:30;;;;;;;3.03;0.57;;;16.90;99.90;;;;;;5050347;28;20108;-75
2024/01/24 03:16:56;;;;;;;2.07;1.23;;;16.80;99.90;;;;;;5048754;28;20040;-77
2024/01/24 03:19:22;;;;;;;3.33;0.60;;;16.80;99.90;;;;;;5046019;28;20029;-74
2024/01/24 03:21:47;;;;;;;3.47;0.80;;;16.80;99.90;;;;;;5047763;28;20142;-76
2024/01/24 03:24:13;;;;;;;2.50;0.90;;;16.80;99.90;;;;;;5046846;28;20033;-74
2024/01/24 03:26:39;;;;;;;4.97;0.63;;;16.80;99.90;;;;;;5050278;28;20029;-74
2024/01/24 03:29:05;;;;;;;6.73;0.97;;;16.80;99.90;;;;;;5044604;28;20475;-77
2024/01/24 03:31:31;;;;;;;5.47;1.00;;;16.80;99.90;;;;;;5040951;28;20021;-75
2024/01/24 03:33:56;;;;;;;1.60;0.70;;;16.80;99.90;;;;;;5047802;28;20029;-75
2024/01/24 03:36:22;;;;;;;4.23;0.80;;;16.80;99.90;;;;;;5044570;28;20048;-76
2024/01/24 03:38:48;;;;;;;5.17;1.07;;;16.80;99.90;;;;;;5047705;28;20417;-74
2024/01/24 03:41:14;;;;;;;3.22;0.50;;;16.80;99.90;;;;;;5052212;28;20041;-74
2024/01/24 03:43:40;;;;;;;3.97;0.87;;;16.80;99.90;;;;;;5052203;28;20029;-75
2024/01/24 03:46:06;;;;;;;5.43;0.83;;;16.70;99.90;;;;;;5052881;28;20021;-75
2024/01/24 03:48:32;;;;;;;2.47;1.08;;;16.70;99.90;;;;;;5053548;28;20528;-75
2024/01/24 03:50:58;;;;;;;2.73;1.00;;;16.70;99.90;;;;;;5053543;28;20033;-76
2024/01/24 03:53:24;;;;;;;7.22;1.20;;;16.70;99.90;;;;;;5054033;28;20029;-76
2024/01/24 03:55:50;;;;;;;4.53;1.30;;;16.70;99.90;;;;;;5049559;28;20032;-74
2024/01/24 03:58:16;;;;;;;2.80;0.85;;;16.70;99.90;;;;;;5052052;28;20458;-75
2024/01/24 04:00:42;;;;;;;4.35;1.10;;;16.60;99.90;;;;;;5051971;28;20036;-76
2024/01/24 04:03:08;;;;;;;2.53;0.60;;;16.70;99.90;;;;;;5052125;28;20035;-78
2024/01/24 04:05:34;;;;;;;3.73;0.97;;;16.70;99.90;;;;;;5053909;28;20263;-74
2024/01/24 04:08:00;;;;;;;9.20;1.03;;;16.70;99.90;;;;;;5049477;28;20040;-73
2024/01/24 04:10:25;;;;;;;5.27;0.73;;;16.70;99.90;;;;;;5052305;28;20352;-79
2024/01/24 04:12:51;;;;;;;4.60;1.03;;;16.60;99.90;;;;;;5047595;28;20463;-75
2024/01/24 04:15:17;;;;;;;3.50;1.13;;;16.60;99.90;;;;;;5053246;28;20025;-75
2024/01/24 04:17:43;;;;;;;5.37;1.20;;;16.60;99.90;;;;;;5053534;28;20036;-75
2024/01/24 04:20:09;;;;;;;6.30;1.60;;;16.60;99.90;;;;;;5052581;28;20448;-75
2024/01/24 04:22:35;;;;;;;5.25;1.15;;;16.60;99.90;;;;;;5051477;28;20297;-75
2024/01/24 04:25:01;;;;;;;8.07;1.47;;;16.60;99.90;;;;;;5051426;28;20501;-76
2024/01/24 04:27:27;;;;;;;7.03;1.20;;;16.60;99.90;;;;;;5050870;28;20037;-75
2024/01/24 04:29:53;;;;;;;4.80;1.23;;;16.60;99.90;;;;;;5051042;28;20440;-78
2024/01/24 04:32:19;;;;;;;6.55;1.63;;;16.50;99.90;;;;;;5051428;28;20029;-74
2024/01/24 04:34:45;;;;;;;6.10;1.05;;;16.60;99.90;;;;;;5053024;28;20033;-77
2024/01/24 04:37:11;;;;;;;6.80;1.37;;;16.50;99.90;;;;;;5052458;28;20090;-74
2024/01/24 04:39:37;;;;;;;5.45;1.45;;;16.50;99.90;;;;;;5053166;28;20033;-75
2024/01/24 04:42:04;;;;;;;7.43;1.53;;;16.50;99.90;;;;;;5051158;28;20488;-75
2024/01/24 04:44:30;;;;;;;3.58;1.05;;;16.50;99.90;;;;;;5053080;28;20029;-75
2024/01/24 04:46:56;;;;;;;2.40;1.02;;;16.50;99.90;;;;;;5052366;28;20119;-77
2024/01/24 04:49:22;;;;;;;4.30;1.35;;;16.50;99.90;;;;;;5052730;28;20119;-74
2024/01/24 04:51:50;;;;;;;4.23;1.53;;;16.50;99.90;;;;;;5051334;28;20033;-74
2024/01/24 04:54:16;;;;;;;5.82;1.42;;;16.50;99.90;;;;;;5052371;28;20029;-74
2024/01/24 04:56:46;;;;;;;11.37;1.47;;;16.50;99.90;;;;;;5052231;28;20114;-75
2024/01/24 04:59:15;;;;;;;13.52;2.00;;;16.50;99.90;;;;;;5051084;28;20047;-75
2024/01/24 05:01:41;;;;;;;5.53;1.33;;;16.50;99.90;;;;;;5051620;28;20551;-74
2024/01/24 05:04:08;;;;;;;11.02;1.58;;;16.40;99.90;;;;;;5051303;28;20029;-77
2024/01/24 05:06:35;;;;;;;6.50;1.38;;;16.40;99.90;;;;;;5052485;28;20081;-74
2024/01/24 05:09:01;;;;;;;7.47;1.83;;;16.40;99.90;;;;;;5050802;28;20060;-76
2024/01/24 05:11:27;;;;;;;8.32;1.55;;;16.40;99.90;;;;;;5047402;28;20377;-75
2024/01/24 05:13:54;;;;;;;5.33;1.90;;;16.40;99.90;;;;;;5050599;28;20043;-76
2024/01/24 05:16:21;;;;;;;8.18;2.05;;;16.40;99.90;;;;;;5050799;28;20120;-75
2024/01/24 05:18:46;;;;;;;7.30;1.80;;;16.40;99.90;;;;;;5052122;28;20076;-76
2024/01/24 05:21:12;;;;;;;5.70;1.40;;;16.40;99.90;;;;;;5052067;28;20072;-75
2024/01/24 05:23:38;;;;;;;10.23;2.23;;;16.40;99.90;;;;;;5050863;28;20033;-77
2024/01/24 05:26:04;;;;;;;10.20;2.00;;;16.40;99.90;;;;;;5051802;28;20298;-75
2024/01/24 05:28:30;;;;;;;7.33;2.07;;;16.40;99.90;;;;;;5052022;28;20402;-78
2024/01/24 05:30:56;;;;;;;5.65;1.48;;;16.40;99.90;;;;;;5052337;28;20488;-76
2024/01/24 05:33:22;;;;;;;12.63;2.13;;;16.40;99.90;;;;;;5045416;28;20033;-77
2024/01/24 05:35:48;;;;;;;12.40;1.77;;;16.30;99.90;;;;;;5051562;28;20367;-75
2024/01/24 05:38:13;;;;;;;8.20;2.00;;;16.30;99.90;;;;;;5049793;28;20045;-74
2024/01/24 05:40:39;;;;;;;10.00;2.70;;;16.30;99.90;;;;;;5051819;28;20458;-75
2024/01/24 05:43:05;;;;;;;12.03;1.90;;;16.30;99.90;;;;;;5049874;28;20021;-74
2024/01/24 05:45:31;;;;;;;13.33;2.20;;;16.30;99.90;;;;;;5050806;28;20029;-75
2024/01/24 05:47:57;;;;;;;9.10;2.40;;;16.30;99.90;;;;;;5050317;28;20033;-75
2024/01/24 05:50:22;;;;;;;13.97;2.57;;;16.30;99.90;;;;;;5049840;28;20090;-75
2024/01/24 05:52:48;;;;;;;8.67;2.47;;;16.20;99.90;;;;;;5052112;28;20623;-79
2024/01/24 05:55:14;;;;;;;11.17;2.53;;;16.20;99.90;;;;;;5050162;28;20063;-76
2024/01/24 05:57:40;;;;;;;9.63;2.10;;;16.20;99.90;;;;;;5049718;28;20056;-77
2024/01/24 06:00:14;;;;;;;11.05;2.40;;;16.20;99.90;;;;;;5074567;28;20142;-74
2024/01/24 06:02:40;;;;;;;12.85;2.80;;;16.20;99.90;;;;;;5051420;28;20082;-75
2024/01/24 06:05:07;;;;;;;11.55;2.67;;;16.20;99.90;;;;;;5051510;28;20017;-74
2024/01/24 06:07:33;;;;;;;8.05;2.00;;;16.20;99.90;;;;;;5051017;28;20040;-74
2024/01/24 06:10:00;;;;;;;12.25;2.85;;;16.20;99.90;;;;;;5050760;28;20115;-75
2024/01/24 06:12:25;;;;;;;13.63;2.38;;;16.20;99.90;;;;;;5050194;28;20436;-74
2024/01/24 06:14:54;;;;;;;13.23;3.00;;;16.20;99.90;;;;;;5049611;28;20025;-77
2024/01/24 06:17:20;;;;;;;9.52;2.92;;;16.10;99.90;;;;;;5049997;28;20043;-74
2024/01/24 06:19:45;;;;;;;13.33;2.53;;;16.10;99.90;;;;;;5050953;28;20025;-79
2024/01/24 06:22:11;;;;;;;16.23;2.60;;;16.10;99.90;;;;;;5049283;28;20033;-75
2024/01/24 06:24:37;;;;;;;10.00;2.33;;;16.10;99.90;;;;;;5047609;28;20163;-77
2024/01/24 06:27:03;;;;;;;15.48;2.47;;;16.10;99.90;;;;;;5039528;28;20041;-75
2024/01/24 06:29:29;;;;;;;12.07;2.57;;;16.10;99.90;;;;;;5044356;28;20033;-76
2024/01/24 06:31:57;;;;;;;12.98;2.63;;;16.10;99.90;;;;;;5040967;28;20030;-76
2024/01/24 06:34:22;;;;;;;9.43;2.58;;;16.10;99.90;;;;;;5044575;28;20109;-74
2024/01/24 06:36:49;;;;;;;16.03;2.63;;;16.10;99.90;;;;;;5042286;28;20457;-75
2024/01/24 06:39:15;;;;;;;9.48;2.30;;;16.10;99.90;;;;;;5036623;28;20059;-74
2024/01/24 06:41:42;;;;;;;13.00;2.80;;;16.00;99.90;;;;;;5041260;28;20475;-75
2024/01/24 06:44:08;;;;;;;10.15;2.45;;;16.00;99.90;;;;;;5039769;28;20466;-74
2024/01/24 06:46:42;;;;;;;11.48;2.90;;;16.10;99.90;;;;;;5043854;28;20029;-75
2024/01/24 06:49:10;;;;;;;14.23;2.45;;;16.00;99.90;;;;;;5050535;28;20029;-78
2024/01/24 06:51:37;;;;;;;18.48;3.22;;;16.00;99.90;;;;;;5050596;28;20466;-77
2024/01/24 06:54:04;;;;;;;13.38;2.58;;;16.00;99.90;;;;;;5052589;28;20017;-74
2024/01/24 06:56:30;;;;;;;14.43;3.00;;;16.00;99.90;;;;;;5054835;28;20036;-75
2024/01/24 06:58:55;;;;;;;12.15;3.10;;;16.00;99.90;;;;;;5056350;28;20116;-77
2024/01/24 07:01:21;;;;;;;19.57;3.10;;;16.00;99.90;;;;;;5053147;28;20112;-77
2024/01/24 07:03:47;;;;;;;11.87;2.60;;;16.00;99.90;;;;;;5054891;28;20040;-74
2024/01/24 07:06:14;;;;;;;18.10;2.90;;;16.00;99.90;;;;;;5054656;28;20082;-74
2024/01/24 07:08:42;;;;;;;16.20;3.10;;;15.90;99.90;;;;;;5054810;28;20037;-76
2024/01/24 07:11:09;;;;;;;10.52;2.40;;;15.90;99.90;;;;;;5053316;28;20047;-75
2024/01/24 07:13:34;;;;;;;14.43;3.08;;;15.90;99.90;;;;;;5046951;28;20057;-75
2024/01/24 07:16:03;;;;;;;14.57;3.07;;;15.90;99.90;;;;;;5054582;28;20060;-75
2024/01/24 07:18:32;;;;;;;7.97;2.58;;;15.90;99.90;;;;;;5054123;28;20064;-75
2024/01/24 07:20:59;;;;;;;14.38;3.22;;;15.90;99.90;;;;;;5052832;28;20512;-75
2024/01/24 07:23:25;;;;;;;13.63;2.72;;;15.90;99.90;;;;;;5052905;28;20044;-77
2024/01/24 07:25:51;;;;;;;19.97;3.03;;;15.80;99.90;;;;;;5054504;28;20083;-74
2024/01/24 07:28:16;;;;;;;13.73;3.90;;;15.80;99.90;;;;;;5054283;28;20033;-76
2024/01/24 07:30:42;;;;;;;15.23;3.22;;;15.80;99.90;;;;;;5053968;28;20092;-75
2024/01/24 07:33:09;;;;;;;9.67;3.10;;;15.90;99.90;;;;;;5051994;28;20120;-75
2024/01/24 07:35:35;;;;;;;;;;;15.90;99.90;;;;;;5053191;28;20036;-74
2024/01/24 07:38:01;;;;;;;14.83;3.13;;;15.80;99.90;;;;;;5051549;28;19924;-77
2024/01/24 07:40:26;;;;;;;18.27;2.90;;;15.90;99.90;;;;;;5052182;28;20810;-74
2024/01/24 07:42:52;;;;;;;18.50;3.17;;;15.90;99.90;;;;;;5054141;28;20109;-74
2024/01/24 07:45:18;;;;;;;12.45;2.92;;;16.00;99.90;;;;;;5053190;28;20025;-74
2024/01/24 07:47:45;;;;;;;10.40;3.13;;;16.10;99.90;;;;;;5053163;28;20041;-75
2024/01/24 07:50:13;;;;;;;14.88;3.40;;;16.10;99.90;;;;;;5053764;28;20100;-74
2024/01/24 07:52:40;;;;;;;16.40;4.28;;;16.10;99.90;;;;;;5050780;28;20028;-73
2024/01/24 07:55:06;;;;;;;17.13;3.22;;;16.10;99.90;;;;;;5052111;28;20021;-74
2024/01/24 07:57:32;;;;;;;20.27;4.50;;;16.00;99.90;;;;;;5053228;28;20041;-75
2024/01/24 07:59:58;;;;;;;15.32;2.97;;;16.10;99.90;;;;;;5051575;28;20029;-74
2024/01/24 08:02:24;;;;;;;19.45;3.72;;;16.10;99.90;;;;;;5047819;28;20564;-75
2024/01/24 08:04:50;;;;;;;11.67;3.03;;;16.10;99.90;;;;;;5048650;28;20021;-74
2024/01/24 08:07:16;;;;;;;17.87;3.77;;;16.10;99.90;;;;;;5048018;28;20069;-76
2024/01/24 08:09:42;;;;;;;21.43;4.27;;;16.10;99.90;;;;;;5042830;28;20033;-74
2024/01/24 08:12:08;;;;;;;20.90;3.78;;;16.10;99.90;;;;;;5044578;28;20037;-75
2024/01/24 08:14:34;;;;;;;19.27;4.27;;;16.20;99.90;;;;;;5044395;28;20107;-74
2024/01/24 08:17:02;;;;;;;11.77;3.27;;;16.30;99.90;;;;;;5046181;28;20063;-73
2024/01/24 08:19:28;;;;;;;18.73;3.65;;;16.30;99.90;;;;;;5046458;28;20029;-79
2024/01/24 08:21:54;;;;;;;28.23;4.18;;;16.50;99.90;;;;;;5046148;28;20029;-74
2024/01/24 08:24:20;;;;;;;15.30;3.47;;;16.60;99.90;;;;;;5052812;28;20041;-79
2024/01/24 08:26:47;;;;;;;20.05;3.65;;;16.60;99.90;;;;;;5039395;28;20055;-74
2024/01/24 08:29:13;;;;;;;20.85;3.40;;;16.70;99.90;;;;;;5047537;28;20078;-74
2024/01/24 08:31:38;;;;;;;18.57;4.93;;;16.70;99.90;;;;;;5047564;28;20025;-74
2024/01/24 08:34:04;;;;;;;21.57;6.30;;;17.00;99.90;;;;;;5045626;28;20032;-74
2024/01/24 08:36:30;;;;;;;17.13;4.17;;;17.30;99.90;;;;;;5046190;28;20048;-72
2024/01/24 08:38:56;;;;;;;15.03;4.90;;;17.40;99.90;;;;;;5045237;28;20478;-75
2024/01/24 08:41:22;;;;;;;13.57;4.47;;;17.50;99.90;;;;;;5042527;28;20063;-74
2024/01/24 08:43:48;;;;;;;29.95;5.45;;;17.50;99.90;;;;;;5048089;28;20048;-74
2024/01/24 08:46:14;;;;;;;16.58;3.55;;;17.40;99.90;;;;;;5045612;28;20075;-74
2024/01/24 08:48:40;;;;;;;17.83;4.28;;;17.40;99.90;;;;;;5053281;28;20039;-75
2024/01/24 08:51:06;;;;;;;17.20;4.17;;;17.50;99.90;;;;;;5034209;28;20029;-75
2024/01/24 08:53:32;;;;;;;16.13;4.23;;;17.60;99.90;;;;;;5047110;28;20061;-75
2024/01/24 08:55:58;;;;;;;19.73;3.70;;;17.70;99.90;;;;;;5043944;28;20037;-78
2024/01/24 08:58:23;;;;;;;18.90;5.17;;;18.00;99.90;;;;;;5041682;28;20041;-75
2024/01/24 09:00:50;;;;;;;20.60;5.07;;;18.40;99.90;;;;;;5047805;28;20112;-75
2024/01/24 09:03:16;;;;;;;18.95;4.03;;;18.60;99.90;;;;;;5043026;28;20025;-78
2024/01/24 09:05:42;;;;;;;23.17;4.27;;;18.70;99.90;;;;;;5046428;28;20487;-75
2024/01/24 09:08:08;;;;;;;20.47;4.30;;;18.80;99.90;;;;;;5048663;28;20107;-74
2024/01/24 09:10:35;;;;;;;20.98;4.32;;;18.60;99.90;;;;;;5052169;28;20064;-77
2024/01/24 09:13:01;;;;;;;15.70;3.75;;;19.00;99.90;;;;;;5047402;28;20047;-78
2024/01/24 09:15:27;;;;;;;21.55;4.43;;;19.20;99.90;;;;;;5049816;28;20021;-77
2024/01/24 09:17:53;;;;;;;22.53;4.57;;;19.50;99.90;;;;;;5045674;28;20029;-75
2024/01/24 09:20:19;;;;;;;19.02;4.15;;;20.00;99.90;;;;;;5044522;28;20788;-74
2024/01/24 09:22:45;;;;;;;16.10;4.00;;;20.30;99.90;;;;;;5045346;28;20059;-74
2024/01/24 09:25:11;;;;;;;17.70;3.80;;;20.70;99.90;;;;;;5044505;28;20393;-73
2024/01/24 09:27:37;;;;;;;19.60;4.22;;;21.00;99.90;;;;;;5046806;28;20068;-73
2024/01/24 09:30:03;;;;;;;18.17;4.23;;;21.30;99.90;;;;;;5040681;28;20433;-74
2024/01/24 09:32:29;;;;;;;25.25;4.40;;;21.30;99.90;;;;;;5045836;28;20033;-75
2024/01/24 09:34:55;;;;;;;27.40;4.97;;;21.50;99.90;;;;;;5043902;28;20152;-75
2024/01/24 09:37:21;;;;;;;15.10;4.55;;;21.80;99.90;;;;;;5042110;28;20314;-74
2024/01/24 09:39:48;;;;;;;18.60;4.53;;;22.10;99.90;;;;;;5044581;28;20056;-73
2024/01/24 09:42:23;;;;;;;21.10;4.72;;;22.50;99.90;;;;;;5051533;28;20028;-76
2024/01/24 09:44:51;;;;;;;15.43;3.97;;;22.70;99.80;;;;;;5046176;28;20029;-79
2024/01/24 09:47:19;;;;;;;17.58;3.78;;;22.80;99.60;;;;;;5047983;28;20040;-74
2024/01/24 09:49:46;;;;;;;20.30;4.45;;;22.70;99.50;;;;;;5044192;28;20060;-74
2024/01/24 09:52:18;;;;;;;13.15;4.38;;;22.70;99.50;;;;;;5050204;28;20083;-74
2024/01/24 09:54:45;;;;;;;20.25;5.05;;;22.70;99.30;;;;;;5044543;28;20029;-74
2024/01/24 09:57:12;;;;;;;15.90;3.78;;;22.60;99.30;;;;;;5041706;28;20103;-82
2024/01/24 09:59:39;;;;;;;20.70;4.63;;;22.40;99.60;;;;;;5045637;28;20029;-81
2024/01/24 10:02:07;;;;;;;30.00;5.22;;;22.10;99.70;;;;;;5042920;28;20087;-81
2024/01/24 10:04:37;;;;;;;18.63;4.13;;;21.90;99.80;;;;;;5044556;28;20041;-79
2024/01/24 10:07:07;;;;;;;15.88;4.15;;;21.50;99.90;;;;;;5042147;28;20087;-79
2024/01/24 10:09:32;;;;;;;26.15;4.82;;;21.30;99.90;;;;;;5049668;28;20033;-77
2024/01/24 10:11:58;;;;;;;27.17;4.90;;;21.10;99.90;;;;;;5043674;28;20485;-80
2024/01/24 10:14:24;;;;;;;16.38;4.40;;;21.30;99.90;;;;;;5048251;28;20036;-79
2024/01/24 10:16:53;;;;;;;23.17;4.57;;;21.30;99.90;;;;;;5049953;28;20069;-80
2024/01/24 10:19:25;;;;;;;21.30;4.43;;;21.20;99.90;;;;;;5050559;28;20036;-80
2024/01/24 10:21:52;;;;;;;18.48;4.85;;;21.00;99.90;;;;;;5042873;28;20025;-79
2024/01/24 10:24:19;;;;;;;16.20;4.35;;;20.80;99.90;;;;;;5049924;28;20029;-79
2024/01/24 10:26:45;;;;;;;22.38;4.57;;;20.70;99.90;;;;;;5044153;28;20065;-78
2024/01/24 10:29:11;;;;;;;17.25;4.13;;;20.60;99.90;;;;;;5044026;28;20060;-80
2024/01/24 10:31:37;;;;;;;27.17;5.15;;;20.40;99.90;;;;;;5037662;28;20044;-83
2024/01/24 10:34:06;;;;;;;18.35;4.40;;;20.40;99.90;;;;;;5043365;28;20025;-82
2024/01/24 10:36:35;;;;;;;25.42;4.85;;;20.20;99.90;;;;;;5049845;28;20084;-80
2024/01/24 10:39:04;;;;;;;41.20;5.28;;;20.10;99.90;;;;;;5049525;28;20048;-79
2024/01/24 10:41:32;;;;;;;16.90;3.50;;;20.40;99.90;;;;;;5047307;28;20029;-80
2024/01/24 10:44:04;;;;;;;21.17;4.07;;;20.60;99.90;;;;;;5047412;28;20021;-79
2024/01/24 10:46:33;;;;;;;20.45;4.20;;;20.40;99.90;;;;;;5045454;28;20584;-79
2024/01/24 10:48:59;;;;;;;23.65;4.00;;;20.20;99.90;;;;;;5048132;28;20048;-80
2024/01/24 10:51:27;;;;;;;21.92;3.88;;;20.00;99.90;;;;;;5049152;28;20032;-79
2024/01/24 10:53:54;;;;;;;22.50;6.03;;;20.00;99.90;;;;;;5048922;28;20386;-80
2024/01/24 10:56:21;;;;;;;33.08;6.57;;;20.70;99.90;;;;;;5046528;28;20469;-80
2024/01/24 10:58:49;;;;;;;27.23;5.28;;;21.40;99.90;;;;;;5049389;28;20473;-79
2024/01/24 11:01:15;;;;;;;20.92;5.03;;;21.30;99.90;;;;;;5049629;28;20059;-81
2024/01/24 11:03:43;;;;;;;26.05;5.57;;;21.10;99.90;;;;;;5044237;28;20021;-81
2024/01/24 11:06:16;;;;;;;20.95;5.18;;;21.00;99.90;;;;;;5051266;28;20037;-80
2024/01/24 11:08:48;;;;;;;24.70;5.45;;;21.20;99.90;;;;;;5049324;28;20068;-79
2024/01/24 11:11:17;;;;;;;17.45;4.85;;;21.40;99.90;;;;;;5049320;28;20083;-80
2024/01/24 11:13:44;;;;;;;19.33;4.80;;;21.40;99.90;;;;;;5047414;28;20033;-81
2024/01/24 11:16:25;;;;;;;26.65;5.97;;;21.60;99.90;;;;;;5046648;28;20029;-81
2024/01/24 11:18:52;;;;;;;18.48;5.72;;;21.50;99.90;;;;;;5049426;28;20039;-80
2024/01/24 11:21:21;;;;;;;24.48;5.53;;;21.40;99.90;;;;;;5043143;28;20029;-80
2024/01/24 11:23:49;;;;;;;20.95;5.60;;;21.40;99.90;;;;;;5049208;28;20071;-81
2024/01/24 11:26:18;;;;;;;21.88;5.00;;;21.50;99.90;;;;;;5050640;28;20056;-80
2024/01/24 11:28:47;;;;;;;21.88;4.82;;;21.50;99.90;;;;;;5049670;28;20029;-80
2024/01/24 11:31:14;;;;;;;17.08;5.10;;;21.40;99.90;;;;;;5049493;28;20193;-80
2024/01/24 11:33:58;;;;;;;;;;;21.10;99.90;;;;;;5050164;28;20075;-82
2024/01/24 11:36:25;;;;;;;27.30;9.90;;;21.00;99.90;;;;;;5048718;28;20401;-83
2024/01/24 11:38:51;;;;;;;42.78;9.10;;;20.80;99.90;;;;;;5056042;28;20095;-81
2024/01/24 11:41:20;;;;;;;27.07;9.27;;;20.80;99.90;;;;;;5054508;28;20474;-83
2024/01/24 11:43:48;;;;;;;24.70;7.68;;;20.80;99.90;;;;;;5048960;28;20262;-80
2024/01/24 11:46:14;;;;;;;28.00;6.90;;;20.70;99.90;;;;;;5052085;28;20029;-81
2024/01/24 11:48:40;;;;;;;20.60;5.82;;;20.60;99.90;;;;;;5054084;28;20516;-81
2024/01/24 11:51:09;;;;;;;24.33;6.47;;;20.40;99.90;;;;;;5043006;28;20191;-82
2024/01/24 11:53:35;;;;;;;20.50;6.03;;;20.20;99.90;;;;;;5050136;28;20029;-82
2024/01/24 11:56:03;;;;;;;23.75;5.38;;;20.10;99.90;;;;;;5052535;28;20025;-83
2024/01/24 11:58:29;;;;;;;21.52;5.93;;;20.00;99.90;;;;;;5056726;28;20041;-83
2024/01/24 12:00:58;;;;;;;25.23;5.68;;;20.00;99.90;;;;;;5050441;28;20483;-83
2024/01/24 12:03:24;;;;;;;22.25;5.70;;;20.00;99.90;;;;;;5061042;28;20024;-82
2024/01/24 12:05:50;;;;;;;21.50;5.47;;;19.90;99.90;;;;;;5053792;28;20021;-83
2024/01/24 12:08:17;;;;;;;28.85;6.82;;;19.90;99.90;;;;;;5048232;28;20498;-84
2024/01/24 12:10:43;;;;;;;21.23;5.10;;;19.80;99.90;;;;;;5050871;28;20025;-80
2024/01/24 12:13:09;;;;;;;22.77;5.38;;;19.70;99.90;;;;;;5038651;28;20045;-79
2024/01/24 12:15:36;;;;;;;19.65;5.35;;;19.60;99.90;;;;;;5059571;28;20024;-82
2024/01/24 12:18:06;;;;;;;18.55;5.07;;;19.60;99.90;;;;;;5054099;28;20037;-83
2024/01/24 12:20:33;;;;;;;17.98;5.05;;;19.50;99.90;;;;;;5046081;28;20033;-81
2024/01/24 12:22:59;;;;;;;18.98;4.57;;;19.50;99.90;;;;;;5051830;28;20147;-83
2024/01/24 12:25:27;;;;;;;16.25;4.47;;;19.40;99.90;;;;;;5048846;28;20040;-82
2024/01/24 12:27:53;;;;;;;18.08;4.97;;;19.40;99.90;;;;;;5052852;28;20092;-80
2024/01/24 12:30:21;;;;;;;19.38;5.97;;;19.20;99.90;;;;;;5047401;28;20025;-80
2024/01/24 12:32:47;;;;;;;25.08;4.88;;;19.20;99.90;;;;;;5049285;28;20108;-80
2024/01/24 12:35:14;;;;;;;24.83;5.72;;;19.10;99.90;;;;;;5052395;28;20039;-79
2024/01/24 12:37:40;;;;;;;;;;;19.10;99.90;;;;;;5052637;28;20044;-79
2024/01/24 12:40:08;;;;;;;21.67;5.22;;;18.90;99.90;;;;;;5044594;28;20004;-80